sensor_id;sensor_type;location;lat;lon;timestamp;pressure;altitude;pressure_sealevel;temperature;humidity
31538;BME280;18147;51.952;6.146;2023-02-17T00:01:23;101867.25;;;10.37;100.00
31538;BME280;18147;51.952;6.146;2023-02-17T00:03:51;101862.16;;;10.52;100.00
31538;BME280;18147;51.952;6.146;2023-02-17T00:06:19;101863.28;;;10.46;100.00
31538;BME280;18147;51.952;6.146;2023-02-17T00:08:45;101864.88;;;10.50;100.00
31538;BME280;18147;51.952;6.146;2023-02-17T00:11:11;101859.13;;;10.59;100.00
31538;BME280;18147;51.952;6.146;2023-02-17T00:13:37;101857.75;;;10.51;100.00
31538;BME280;18147;51.952;6.146;2023-02-17T00:16:12;101850.47;;;10.54;100.00
31538;BME280;18147;51.952;6.146;2023-02-17T00:18:39;101855.00;;;10.52;100.00
31538;BME280;18147;51.952;6.146;2023-02-17T00:21:15;101855.66;;;10.57;100.00
31538;BME280;18147;51.952;6.146;2023-02-17T00:23:42;101853.94;;;10.56;100.00
31538;BME280;18147;51.952;6.146;2023-02-17T00:26:07;101846.78;;;10.57;100.00
31538;BME280;18147;51.952;6.146;2023-02-17T00:28:33;101839.66;;;10.57;100.00
31538;BME280;18147;51.952;6.146;2023-02-17T00:31:04;101841.97;;;10.65;100.00
31538;BME280;18147;51.952;6.146;2023-02-17T00:33:30;101847.09;;;10.51;100.00
31538;BME280;18147;51.952;6.146;2023-02-17T00:35:55;101840.50;;;10.58;100.00
31538;BME280;18147;51.952;6.146;2023-02-17T00:38:27;101839.34;;;10.63;100.00
31538;BME280;18147;51.952;6.146;2023-02-17T00:40:53;101837.16;;;10.54;100.00
31538;BME280;18147;51.952;6.146;2023-02-17T00:43:18;101837.94;;;10.56;100.00
31538;BME280;18147;51.952;6.146;2023-02-17T00:45:47;101839.81;;;10.54;100.00
31538;BME280;18147;51.952;6.146;2023-02-17T00:48:12;101846.91;;;10.54;100.00
31538;BME280;18147;51.952;6.146;2023-02-17T00:50:38;101841.31;;;10.60;100.00
31538;BME280;18147;51.952;6.146;2023-02-17T00:53:03;101834.63;;;10.70;100.00
31538;BME280;18147;51.952;6.146;2023-02-17T00:55:28;101830.78;;;10.57;100.00
31538;BME280;18147;51.952;6.146;2023-02-17T00:57:54;101831.78;;;10.73;100.00
31538;BME280;18147;51.952;6.146;2023-02-17T01:00:20;101828.41;;;10.70;100.00
31538;BME280;18147;51.952;6.146;2023-02-17T01:02:45;101834.97;;;10.62;100.00
31538;BME280;18147;51.952;6.146;2023-02-17T01:05:11;101820.16;;;10.74;100.00
31538;BME280;18147;51.952;6.146;2023-02-17T01:07:36;101815.00;;;10.71;100.00
31538;BME280;18147;51.952;6.146;2023-02-17T01:10:03;101809.56;;;10.73;100.00
31538;BME280;18147;51.952;6.146;2023-02-17T01:12:29;101806.13;;;10.71;100.00
31538;BME280;18147;51.952;6.146;2023-02-17T01:14:56;101798.34;;;10.66;100.00
31538;BME280;18147;51.952;6.146;2023-02-17T01:17:23;101801.22;;;10.61;100.00
31538;BME280;18147;51.952;6.146;2023-02-17T01:19:48;101796.13;;;10.57;100.00
31538;BME280;18147;51.952;6.146;2023-02-17T01:22:14;101793.09;;;10.65;100.00
31538;BME280;18147;51.952;6.146;2023-02-17T01:24:40;101788.44;;;10.68;100.00
31538;BME280;18147;51.952;6.146;2023-02-17T01:27:05;101793.00;;;10.66;100.00
31538;BME280;18147;51.952;6.146;2023-02-17T01:29:31;101782.25;;;10.68;100.00
31538;BME280;18147;51.952;6.146;2023-02-17T01:31:56;101787.38;;;10.72;100.00
31538;BME280;18147;51.952;6.146;2023-02-17T01:34:22;101797.19;;;10.72;100.00
31538;BME280;18147;51.952;6.146;2023-02-17T01:36:47;101797.09;;;10.73;100.00
31538;BME280;18147;51.952;6.146;2023-02-17T01:39:14;101797.25;;;10.70;100.00
31538;BME280;18147;51.952;6.146;2023-02-17T01:41:41;101797.41;;;10.67;100.00
31538;BME280;18147;51.952;6.146;2023-02-17T01:46:45;101804.75;;;10.81;100.00
31538;BME280;18147;51.952;6.146;2023-02-17T01:49:37;101803.28;;;10.74;100.00
31538;BME280;18147;51.952;6.146;2023-02-17T01:52:14;101796.16;;;10.74;100.00
31538;BME280;18147;51.952;6.146;2023-02-17T01:54:54;101790.75;;;10.76;100.00
31538;BME280;18147;51.952;6.146;2023-02-17T01:57:25;101788.72;;;10.81;100.00
31538;BME280;18147;51.952;6.146;2023-02-17T01:59:52;101780.94;;;10.76;100.00
31538;BME280;18147;51.952;6.146;2023-02-17T02:02:18;101777.78;;;10.68;100.00
31538;BME280;18147;51.952;6.146;2023-02-17T02:04:45;101770.59;;;10.70;100.00
31538;BME280;18147;51.952;6.146;2023-02-17T02:07:16;101760.16;;;10.66;100.00
31538;BME280;18147;51.952;6.146;2023-02-17T02:09:48;101753.31;;;10.60;100.00
31538;BME280;18147;51.952;6.146;2023-02-17T02:12:20;101741.69;;;10.61;100.00
31538;BME280;18147;51.952;6.146;2023-02-17T02:14:47;101752.91;;;10.68;100.00
31538;BME280;18147;51.952;6.146;2023-02-17T02:18:07;101749.31;;;10.69;100.00
31538;BME280;18147;51.952;6.146;2023-02-17T02:33:47;101733.69;;;10.78;100.00
31538;BME280;18147;51.952;6.146;2023-02-17T02:36:27;101731.66;;;10.83;100.00
31538;BME280;18147;51.952;6.146;2023-02-17T02:41:40;101738.13;;;10.79;100.00
31538;BME280;18147;51.952;6.146;2023-02-17T02:44:08;101730.56;;;10.70;100.00
31538;BME280;18147;51.952;6.146;2023-02-17T02:46:34;101728.38;;;10.78;100.00
31538;BME280;18147;51.952;6.146;2023-02-17T02:49:01;101713.44;;;10.74;100.00
31538;BME280;18147;51.952;6.146;2023-02-17T02:51:42;101713.63;;;10.71;100.00
31538;BME280;18147;51.952;6.146;2023-02-17T02:59:57;101705.22;;;10.79;100.00
31538;BME280;18147;51.952;6.146;2023-02-17T03:02:31;101698.03;;;10.81;100.00
31538;BME280;18147;51.952;6.146;2023-02-17T03:05:07;101693.63;;;10.80;100.00
31538;BME280;18147;51.952;6.146;2023-02-17T03:07:40;101701.69;;;10.78;100.00
31538;BME280;18147;51.952;6.146;2023-02-17T03:10:08;101713.44;;;10.74;100.00
31538;BME280;18147;51.952;6.146;2023-02-17T03:12:36;101706.75;;;10.84;100.00
31538;BME280;18147;51.952;6.146;2023-02-17T03:15:08;101710.03;;;10.89;100.00
31538;BME280;18147;51.952;6.146;2023-02-17T03:17:37;101714.16;;;10.78;100.00
31538;BME280;18147;51.952;6.146;2023-02-17T03:20:03;101713.84;;;10.84;100.00
31538;BME280;18147;51.952;6.146;2023-02-17T03:22:34;101707.75;;;10.82;100.00
31538;BME280;18147;51.952;6.146;2023-02-17T03:25:01;101704.91;;;10.68;100.00
31538;BME280;18147;51.952;6.146;2023-02-17T03:27:26;101700.91;;;10.76;100.00
31538;BME280;18147;51.952;6.146;2023-02-17T03:29:52;101707.66;;;10.66;100.00
31538;BME280;18147;51.952;6.146;2023-02-17T03:32:19;101701.00;;;10.75;100.00
31538;BME280;18147;51.952;6.146;2023-02-17T03:34:44;101704.44;;;10.77;100.00
31538;BME280;18147;51.952;6.146;2023-02-17T03:37:10;101705.44;;;10.74;100.00
31538;BME280;18147;51.952;6.146;2023-02-17T03:39:35;101697.94;;;10.82;100.00
31538;BME280;18147;51.952;6.146;2023-02-17T03:42:01;101707.34;;;10.72;100.00
31538;BME280;18147;51.952;6.146;2023-02-17T03:44:27;101707.25;;;10.74;100.00
31538;BME280;18147;51.952;6.146;2023-02-17T03:46:52;101695.72;;;10.73;100.00
31538;BME280;18147;51.952;6.146;2023-02-17T03:49:17;101690.47;;;10.72;100.00
31538;BME280;18147;51.952;6.146;2023-02-17T03:51:43;101691.25;;;10.74;100.00
31538;BME280;18147;51.952;6.146;2023-02-17T03:54:08;101692.78;;;10.79;100.00
31538;BME280;18147;51.952;6.146;2023-02-17T03:56:34;101683.72;;;10.82;100.00
31538;BME280;18147;51.952;6.146;2023-02-17T03:58:59;101662.84;;;10.73;100.00
31538;BME280;18147;51.952;6.146;2023-02-17T04:01:25;101662.41;;;10.65;100.00
31538;BME280;18147;51.952;6.146;2023-02-17T04:03:50;101664.50;;;10.75;100.00
31538;BME280;18147;51.952;6.146;2023-02-17T04:06:16;101650.91;;;10.62;100.00
31538;BME280;18147;51.952;6.146;2023-02-17T04:08:41;101655.78;;;10.72;100.00
31538;BME280;18147;51.952;6.146;2023-02-17T04:11:08;101659.09;;;10.77;100.00
31538;BME280;18147;51.952;6.146;2023-02-17T04:13:34;101654.72;;;10.76;100.00
31538;BME280;18147;51.952;6.146;2023-02-17T04:16:00;101657.97;;;10.63;100.00
31538;BME280;18147;51.952;6.146;2023-02-17T04:18:27;101662.84;;;10.73;100.00
31538;BME280;18147;51.952;6.146;2023-02-17T04:20:53;101658.78;;;10.66;100.00
31538;BME280;18147;51.952;6.146;2023-02-17T04:23:18;101656.34;;;10.61;100.00
31538;BME280;18147;51.952;6.146;2023-02-17T04:25:44;101660.34;;;10.70;100.00
31538;BME280;18147;51.952;6.146;2023-02-17T04:28:11;101659.63;;;10.66;100.00
31538;BME280;18147;51.952;6.146;2023-02-17T04:30:37;101661.44;;;10.66;100.00
31538;BME280;18147;51.952;6.146;2023-02-17T04:33:03;101666.38;;;10.56;100.00
31538;BME280;18147;51.952;6.146;2023-02-17T04:35:29;101669.38;;;10.67;100.00
31538;BME280;18147;51.952;6.146;2023-02-17T04:37:54;101669.69;;;10.61;100.00
31538;BME280;18147;51.952;6.146;2023-02-17T04:40:20;101668.03;;;10.76;100.00
31538;BME280;18147;51.952;6.146;2023-02-17T04:42:46;101665.06;;;10.65;100.00
31538;BME280;18147;51.952;6.146;2023-02-17T04:45:12;101653.22;;;10.70;100.00
31538;BME280;18147;51.952;6.146;2023-02-17T04:47:38;101654.75;;;10.74;100.00
31538;BME280;18147;51.952;6.146;2023-02-17T04:50:05;101654.94;;;10.71;100.00
31538;BME280;18147;51.952;6.146;2023-02-17T04:52:31;101652.50;;;10.67;100.00
31538;BME280;18147;51.952;6.146;2023-02-17T04:54:56;101658.94;;;10.62;100.00
31538;BME280;18147;51.952;6.146;2023-02-17T04:57:22;101651.56;;;10.68;100.00
31538;BME280;18147;51.952;6.146;2023-02-17T04:59:47;101635.41;;;10.71;100.00
31538;BME280;18147;51.952;6.146;2023-02-17T05:02:12;101631.69;;;10.73;100.00
31538;BME280;18147;51.952;6.146;2023-02-17T05:04:38;101625.13;;;10.63;100.00
31538;BME280;18147;51.952;6.146;2023-02-17T05:07:03;101628.41;;;10.68;100.00
31538;BME280;18147;51.952;6.146;2023-02-17T05:09:31;101631.25;;;10.65;100.00
31538;BME280;18147;51.952;6.146;2023-02-17T05:11:56;101620.03;;;10.76;100.00
31538;BME280;18147;51.952;6.146;2023-02-17T05:14:22;101613.03;;;10.73;100.00
31538;BME280;18147;51.952;6.146;2023-02-17T05:16:48;101616.09;;;10.66;100.00
31538;BME280;18147;51.952;6.146;2023-02-17T05:19:13;101619.72;;;10.65;100.00
31538;BME280;18147;51.952;6.146;2023-02-17T05:21:39;101642.13;;;10.78;100.00
31538;BME280;18147;51.952;6.146;2023-02-17T05:24:04;101647.31;;;10.63;100.00
31538;BME280;18147;51.952;6.146;2023-02-17T05:26:30;101648.56;;;10.74;100.00
31538;BME280;18147;51.952;6.146;2023-02-17T05:28:55;101643.56;;;10.68;100.00
31538;BME280;18147;51.952;6.146;2023-02-17T05:31:21;101649.84;;;10.67;100.00
31538;BME280;18147;51.952;6.146;2023-02-17T05:33:46;101659.09;;;10.59;100.00
31538;BME280;18147;51.952;6.146;2023-02-17T05:36:12;101655.81;;;10.54;100.00
31538;BME280;18147;51.952;6.146;2023-02-17T05:38:38;101653.50;;;10.47;100.00
31538;BME280;18147;51.952;6.146;2023-02-17T05:41:04;101662.03;;;10.36;100.00
31538;BME280;18147;51.952;6.146;2023-02-17T05:43:30;101663.22;;;10.30;100.00
31538;BME280;18147;51.952;6.146;2023-02-17T05:46:01;101673.47;;;10.38;100.00
31538;BME280;18147;51.952;6.146;2023-02-17T05:48:27;101667.06;;;10.23;100.00
31538;BME280;18147;51.952;6.146;2023-02-17T05:50:54;101671.63;;;10.21;100.00
31538;BME280;18147;51.952;6.146;2023-02-17T05:53:19;101688.78;;;10.34;100.00
31538;BME280;18147;51.952;6.146;2023-02-17T05:55:45;101689.22;;;10.25;100.00
31538;BME280;18147;51.952;6.146;2023-02-17T05:58:10;101686.88;;;10.36;100.00
31538;BME280;18147;51.952;6.146;2023-02-17T06:00:36;101665.16;;;10.27;100.00
31538;BME280;18147;51.952;6.146;2023-02-17T06:03:01;101651.19;;;10.39;100.00
31538;BME280;18147;51.952;6.146;2023-02-17T06:05:27;101658.44;;;10.37;100.00
31538;BME280;18147;51.952;6.146;2023-02-17T06:07:52;101655.75;;;10.37;100.00
31538;BME280;18147;51.952;6.146;2023-02-17T06:10:18;101658.50;;;10.35;100.00
31538;BME280;18147;51.952;6.146;2023-02-17T06:12:43;101665.97;;;10.46;100.00
31538;BME280;18147;51.952;6.146;2023-02-17T06:15:11;101660.94;;;10.40;100.00
31538;BME280;18147;51.952;6.146;2023-02-17T06:17:37;101649.13;;;10.46;100.00
31538;BME280;18147;51.952;6.146;2023-02-17T06:20:03;101627.16;;;10.41;100.00
31538;BME280;18147;51.952;6.146;2023-02-17T06:22:29;101650.19;;;10.42;100.00
31538;BME280;18147;51.952;6.146;2023-02-17T06:24:55;101659.56;;;10.50;100.00
31538;BME280;18147;51.952;6.146;2023-02-17T06:27:20;101654.22;;;10.50;100.00
31538;BME280;18147;51.952;6.146;2023-02-17T06:29:46;101647.94;;;10.51;100.00
31538;BME280;18147;51.952;6.146;2023-02-17T06:32:11;101650.84;;;10.47;100.00
31538;BME280;18147;51.952;6.146;2023-02-17T06:34:37;101649.56;;;10.54;100.00
31538;BME280;18147;51.952;6.146;2023-02-17T06:37:02;101644.00;;;10.58;100.00
31538;BME280;18147;51.952;6.146;2023-02-17T06:39:28;101644.41;;;10.51;100.00
31538;BME280;18147;51.952;6.146;2023-02-17T06:41:53;101661.13;;;10.54;100.00
31538;BME280;18147;51.952;6.146;2023-02-17T06:44:20;101651.56;;;10.50;100.00
31538;BME280;18147;51.952;6.146;2023-02-17T06:46:45;101650.16;;;10.60;100.00
31538;BME280;18147;51.952;6.146;2023-02-17T06:49:11;101648.44;;;10.59;100.00
31538;BME280;18147;51.952;6.146;2023-02-17T06:51:37;101643.16;;;10.58;100.00
31538;BME280;18147;51.952;6.146;2023-02-17T06:54:02;101646.91;;;10.54;100.00
31538;BME280;18147;51.952;6.146;2023-02-17T06:56:28;101636.97;;;10.57;100.00
31538;BME280;18147;51.952;6.146;2023-02-17T06:58:54;101648.56;;;10.56;100.00
31538;BME280;18147;51.952;6.146;2023-02-17T07:01:22;101644.41;;;10.51;100.00
31538;BME280;18147;51.952;6.146;2023-02-17T07:03:51;101645.81;;;10.58;100.00
31538;BME280;18147;51.952;6.146;2023-02-17T07:06:16;101649.19;;;10.61;100.00
31538;BME280;18147;51.952;6.146;2023-02-17T07:08:42;101641.41;;;10.74;100.00
31538;BME280;18147;51.952;6.146;2023-02-17T07:11:09;101637.25;;;10.69;100.00
31538;BME280;18147;51.952;6.146;2023-02-17T07:13:36;101638.22;;;10.68;100.00
31538;BME280;18147;51.952;6.146;2023-02-17T07:16:03;101633.69;;;10.70;100.00
31538;BME280;18147;51.952;6.146;2023-02-17T07:18:28;101630.75;;;10.74;100.00
31538;BME280;18147;51.952;6.146;2023-02-17T07:20:54;101627.94;;;10.77;100.00
31538;BME280;18147;51.952;6.146;2023-02-17T07:23:20;101640.56;;;10.74;100.00
31538;BME280;18147;51.952;6.146;2023-02-17T07:25:45;101636.81;;;10.78;100.00
31538;BME280;18147;51.952;6.146;2023-02-17T07:28:11;101639.16;;;10.84;100.00
31538;BME280;18147;51.952;6.146;2023-02-17T08:29:11;101621.72;;;11.45;100.00
31538;BME280;18147;51.952;6.146;2023-02-17T08:31:38;101606.53;;;11.45;100.00
31538;BME280;18147;51.952;6.146;2023-02-17T08:34:08;101607.66;;;11.57;100.00
31538;BME280;18147;51.952;6.146;2023-02-17T08:36:34;101603.03;;;11.60;100.00
31538;BME280;18147;51.952;6.146;2023-02-17T08:39:03;101619.31;;;11.56;100.00
31538;BME280;18147;51.952;6.146;2023-02-17T08:41:33;101626.38;;;11.57;100.00
31538;BME280;18147;51.952;6.146;2023-02-17T08:44:00;101632.16;;;11.65;100.00
31538;BME280;18147;51.952;6.146;2023-02-17T08:46:27;101614.13;;;11.53;100.00
31538;BME280;18147;51.952;6.146;2023-02-17T08:48:53;101636.91;;;11.60;100.00
31538;BME280;18147;51.952;6.146;2023-02-17T08:51:21;101652.59;;;11.66;100.00
31538;BME280;18147;51.952;6.146;2023-02-17T08:53:51;101650.88;;;11.65;100.00
31538;BME280;18147;51.952;6.146;2023-02-17T09:03:57;101666.47;;;11.73;100.00
31538;BME280;18147;51.952;6.146;2023-02-17T11:45:51;101674.19;;;12.72;100.00
31538;BME280;18147;51.952;6.146;2023-02-17T11:53:53;101685.09;;;12.53;100.00
31538;BME280;18147;51.952;6.146;2023-02-17T11:56:28;101694.44;;;12.46;100.00
31538;BME280;18147;51.952;6.146;2023-02-17T11:59:03;101691.25;;;12.39;100.00
31538;BME280;18147;51.952;6.146;2023-02-17T12:01:57;101671.59;;;12.40;100.00
31538;BME280;18147;51.952;6.146;2023-02-17T12:04:37;101686.25;;;12.33;100.00
31538;BME280;18147;51.952;6.146;2023-02-17T12:10:02;101676.13;;;12.54;100.00
31538;BME280;18147;51.952;6.146;2023-02-17T12:17:57;101670.75;;;12.54;100.00
31538;BME280;18147;51.952;6.146;2023-02-17T12:23:30;101679.22;;;12.62;100.00
31538;BME280;18147;51.952;6.146;2023-02-17T12:26:10;101679.66;;;12.55;100.00
31538;BME280;18147;51.952;6.146;2023-02-17T12:28:54;101684.06;;;12.56;100.00
31538;BME280;18147;51.952;6.146;2023-02-17T12:31:31;101682.53;;;12.52;100.00
31538;BME280;18147;51.952;6.146;2023-02-17T12:34:14;101688.75;;;12.36;100.00
31538;BME280;18147;51.952;6.146;2023-02-17T12:39:34;101694.72;;;12.41;100.00
31538;BME280;18147;51.952;6.146;2023-02-17T12:42:12;101699.63;;;12.33;100.00
31538;BME280;18147;51.952;6.146;2023-02-17T12:44:44;101708.94;;;12.42;100.00
31538;BME280;18147;51.952;6.146;2023-02-17T12:47:29;101723.44;;;12.38;100.00
31538;BME280;18147;51.952;6.146;2023-02-17T12:50:03;101732.56;;;12.50;100.00
31538;BME280;18147;51.952;6.146;2023-02-17T12:52:36;101736.56;;;12.27;100.00
31538;BME280;18147;51.952;6.146;2023-02-17T12:58:06;101742.31;;;12.35;100.00
31538;BME280;18147;51.952;6.146;2023-02-17T13:00:42;101750.63;;;12.30;100.00
31538;BME280;18147;51.952;6.146;2023-02-17T13:03:08;101770.44;;;12.10;100.00
31538;BME280;18147;51.952;6.146;2023-02-17T13:11:12;101780.59;;;12.19;100.00
31538;BME280;18147;51.952;6.146;2023-02-17T13:13:38;101777.53;;;12.11;100.00
31538;BME280;18147;51.952;6.146;2023-02-17T13:16:12;101775.09;;;12.07;100.00
31538;BME280;18147;51.952;6.146;2023-02-17T13:18:49;101786.91;;;12.18;100.00
31538;BME280;18147;51.952;6.146;2023-02-17T13:23:58;101789.09;;;12.28;100.00
31538;BME280;18147;51.952;6.146;2023-02-17T13:26:27;101787.53;;;12.24;100.00
31538;BME280;18147;51.952;6.146;2023-02-17T13:31:55;101791.88;;;11.93;100.00
31538;BME280;18147;51.952;6.146;2023-02-17T13:34:31;101795.50;;;11.92;100.00
31538;BME280;18147;51.952;6.146;2023-02-17T13:36:59;101791.28;;;11.71;100.00
31538;BME280;18147;51.952;6.146;2023-02-17T13:41:55;101796.19;;;11.78;100.00
31538;BME280;18147;51.952;6.146;2023-02-17T13:44:28;101809.72;;;11.58;100.00
31538;BME280;18147;51.952;6.146;2023-02-17T13:46:58;101790.72;;;11.64;100.00
31538;BME280;18147;51.952;6.146;2023-02-17T13:49:26;101803.91;;;11.67;100.00
31538;BME280;18147;51.952;6.146;2023-02-17T13:51:52;101807.34;;;11.69;100.00
31538;BME280;18147;51.952;6.146;2023-02-17T13:54:21;101787.66;;;11.54;100.00
31538;BME280;18147;51.952;6.146;2023-02-17T13:56:51;101788.59;;;11.71;100.00
31538;BME280;18147;51.952;6.146;2023-02-17T13:59:23;101773.75;;;11.65;100.00
31538;BME280;18147;51.952;6.146;2023-02-17T14:01:50;101789.69;;;11.66;100.00
31538;BME280;18147;51.952;6.146;2023-02-17T14:04:27;101798.94;;;11.94;100.00
31538;BME280;18147;51.952;6.146;2023-02-17T14:06:59;101803.75;;;11.87;100.00
31538;BME280;18147;51.952;6.146;2023-02-17T14:09:32;101797.06;;;11.79;100.00
31538;BME280;18147;51.952;6.146;2023-02-17T14:12:01;101779.69;;;11.87;100.00
31538;BME280;18147;51.952;6.146;2023-02-17T14:14:32;101761.13;;;12.02;100.00
31538;BME280;18147;51.952;6.146;2023-02-17T14:17:02;101777.34;;;11.81;100.00
31538;BME280;18147;51.952;6.146;2023-02-17T14:19:28;101779.97;;;11.99;100.00
31538;BME280;18147;51.952;6.146;2023-02-17T14:22:05;101776.28;;;12.01;100.00
31538;BME280;18147;51.952;6.146;2023-02-17T14:24:33;101774.88;;;11.94;100.00
31538;BME280;18147;51.952;6.146;2023-02-17T14:27:06;101774.13;;;11.92;100.00
31538;BME280;18147;51.952;6.146;2023-02-17T14:29:44;101783.13;;;12.07;100.00
31538;BME280;18147;51.952;6.146;2023-02-17T14:35:08;101768.94;;;12.05;100.00
31538;BME280;18147;51.952;6.146;2023-02-17T14:37:34;101775.19;;;12.21;100.00
31538;BME280;18147;51.952;6.146;2023-02-17T14:40:05;101766.03;;;12.09;100.00
31538;BME280;18147;51.952;6.146;2023-02-17T14:42:31;101769.22;;;12.00;100.00
31538;BME280;18147;51.952;6.146;2023-02-17T14:44:57;101763.34;;;12.09;100.00
31538;BME280;18147;51.952;6.146;2023-02-17T14:47:23;101761.72;;;12.07;100.00
31538;BME280;18147;51.952;6.146;2023-02-17T14:49:48;101762.69;;;12.06;100.00
31538;BME280;18147;51.952;6.146;2023-02-17T14:52:19;101776.41;;;12.15;100.00
31538;BME280;18147;51.952;6.146;2023-02-17T14:54:44;101787.25;;;12.12;100.00
31538;BME280;18147;51.952;6.146;2023-02-17T14:57:12;101774.03;;;12.09;100.00
31538;BME280;18147;51.952;6.146;2023-02-17T14:59:38;101777.28;;;12.16;100.00
31538;BME280;18147;51.952;6.146;2023-02-17T15:02:16;101784.97;;;12.05;100.00
31538;BME280;18147;51.952;6.146;2023-02-17T15:04:42;101786.31;;;12.13;100.00
31538;BME280;18147;51.952;6.146;2023-02-17T15:07:11;101792.75;;;12.09;100.00
31538;BME280;18147;51.952;6.146;2023-02-17T15:09:37;101821.31;;;12.09;100.00
31538;BME280;18147;51.952;6.146;2023-02-17T15:12:13;101824.34;;;12.18;100.00
31538;BME280;18147;51.952;6.146;2023-02-17T15:14:39;101814.34;;;12.22;100.00
31538;BME280;18147;51.952;6.146;2023-02-17T15:17:05;101803.75;;;12.21;100.00
31538;BME280;18147;51.952;6.146;2023-02-17T15:19:30;101823.81;;;12.12;100.00
31538;BME280;18147;51.952;6.146;2023-02-17T15:21:55;101823.69;;;12.31;100.00
31538;BME280;18147;51.952;6.146;2023-02-17T15:24:24;101831.34;;;12.21;100.00
31538;BME280;18147;51.952;6.146;2023-02-17T15:26:50;101838.19;;;12.27;100.00
31538;BME280;18147;51.952;6.146;2023-02-17T15:29:17;101831.22;;;12.07;100.00
31538;BME280;18147;51.952;6.146;2023-02-17T15:31:43;101834.69;;;12.09;100.00
31538;BME280;18147;51.952;6.146;2023-02-17T15:34:16;101830.81;;;12.14;100.00
31538;BME280;18147;51.952;6.146;2023-02-17T15:36:42;101820.38;;;12.10;100.00
31538;BME280;18147;51.952;6.146;2023-02-17T15:39:10;101832.22;;;12.22;100.00
31538;BME280;18147;51.952;6.146;2023-02-17T15:41:36;101832.81;;;12.11;100.00
31538;BME280;18147;51.952;6.146;2023-02-17T15:44:02;101838.81;;;12.14;100.00
31538;BME280;18147;51.952;6.146;2023-02-17T15:46:30;101841.13;;;12.05;100.00
31538;BME280;18147;51.952;6.146;2023-02-17T15:48:57;101838.41;;;12.06;100.00
31538;BME280;18147;51.952;6.146;2023-02-17T15:51:23;101853.38;;;12.09;100.00
31538;BME280;18147;51.952;6.146;2023-02-17T15:53:49;101845.13;;;12.13;100.00
31538;BME280;18147;51.952;6.146;2023-02-17T15:56:18;101861.03;;;11.99;100.00
31538;BME280;18147;51.952;6.146;2023-02-17T15:58:45;101854.59;;;12.03;100.00
31538;BME280;18147;51.952;6.146;2023-02-17T16:01:22;101864.41;;;12.03;100.00
31538;BME280;18147;51.952;6.146;2023-02-17T16:03:49;101865.66;;;12.13;100.00
31538;BME280;18147;51.952;6.146;2023-02-17T16:06:14;101865.66;;;12.13;100.00
31538;BME280;18147;51.952;6.146;2023-02-17T16:08:40;101864.78;;;12.12;100.00
31538;BME280;18147;51.952;6.146;2023-02-17T16:11:09;101871.09;;;12.11;100.00
31538;BME280;18147;51.952;6.146;2023-02-17T16:13:36;101864.03;;;12.10;100.00
31538;BME280;18147;51.952;6.146;2023-02-17T16:16:02;101872.72;;;12.14;100.00
31538;BME280;18147;51.952;6.146;2023-02-17T16:18:27;101879.03;;;12.13;100.00
31538;BME280;18147;51.952;6.146;2023-02-17T16:20:54;101886.66;;;12.03;100.00
31538;BME280;18147;51.952;6.146;2023-02-17T16:23:19;101891.38;;;12.15;100.00
31538;BME280;18147;51.952;6.146;2023-02-17T16:25:45;101883.28;;;12.00;100.00
31538;BME280;18147;51.952;6.146;2023-02-17T16:28:17;101886.84;;;12.00;100.00
31538;BME280;18147;51.952;6.146;2023-02-17T16:30:43;101887.53;;;12.04;100.00
31538;BME280;18147;51.952;6.146;2023-02-17T16:33:11;101913.63;;;11.99;100.00
31538;BME280;18147;51.952;6.146;2023-02-17T16:35:37;101908.75;;;11.89;100.00
31538;BME280;18147;51.952;6.146;2023-02-17T16:38:11;101904.63;;;12.01;100.00
31538;BME280;18147;51.952;6.146;2023-02-17T16:40:40;101900.22;;;12.00;100.00
31538;BME280;18147;51.952;6.146;2023-02-17T16:43:15;101909.38;;;11.95;100.00
31538;BME280;18147;51.952;6.146;2023-02-17T16:45:57;101910.75;;;11.86;100.00
31538;BME280;18147;51.952;6.146;2023-02-17T16:48:25;101917.09;;;11.83;100.00
31538;BME280;18147;51.952;6.146;2023-02-17T16:50:51;101911.38;;;11.91;100.00
31538;BME280;18147;51.952;6.146;2023-02-17T16:53:17;101925.56;;;11.74;100.00
31538;BME280;18147;51.952;6.146;2023-02-17T16:55:43;101943.13;;;11.80;100.00
31538;BME280;18147;51.952;6.146;2023-02-17T16:58:17;101943.16;;;11.78;100.00
31538;BME280;18147;51.952;6.146;2023-02-17T17:00:46;101938.78;;;11.77;100.00
31538;BME280;18147;51.952;6.146;2023-02-17T17:03:12;101946.94;;;11.74;100.00
31538;BME280;18147;51.952;6.146;2023-02-17T17:05:37;101939.63;;;11.78;100.00
31538;BME280;18147;51.952;6.146;2023-02-17T17:08:05;101936.34;;;11.73;100.00
31538;BME280;18147;51.952;6.146;2023-02-17T17:10:31;101939.31;;;11.66;100.00
31538;BME280;18147;51.952;6.146;2023-02-17T17:12:57;101945.06;;;11.76;100.00
31538;BME280;18147;51.952;6.146;2023-02-17T17:15:23;101946.50;;;11.83;100.00
31538;BME280;18147;51.952;6.146;2023-02-17T17:18:04;101962.66;;;11.63;100.00
31538;BME280;18147;51.952;6.146;2023-02-17T17:20:33;101966.25;;;11.62;100.00
31538;BME280;18147;51.952;6.146;2023-02-17T17:23:04;101972.09;;;11.70;100.00
31538;BME280;18147;51.952;6.146;2023-02-17T17:25:30;101972.25;;;11.67;100.00
31538;BME280;18147;51.952;6.146;2023-02-17T17:27:57;101970.03;;;11.58;100.00
31538;BME280;18147;51.952;6.146;2023-02-17T17:30:28;101972.38;;;11.64;100.00
31538;BME280;18147;51.952;6.146;2023-02-17T17:32:54;101964.59;;;11.59;100.00
31538;BME280;18147;51.952;6.146;2023-02-17T17:35:20;101979.63;;;11.62;100.00